Dayton, OH (45415)

7:55 AM EDT on July 07, 2015 (GMT -0400)
Millwood Village Englewood, Ohio | | Change Station
CLOSE
Current Station
Personal Weather Station
Location: Englewood, OH
Elevation: 948 ft
Nearby Weather Stations

Elev 948 ft 39.87 °N, 84.31 °W | Updated 43 seconds ago

Partly Cloudy
Partly Cloudy
75.4 °F
Feels Like 74 °F
N
0.0
Wind Variable Wind from South
Gusts 0.0 mph

Today
High -- | Low -- °F
--% Chance of Precip.
Yesterday
High -- | Low -- °F
Precip. -- in
6:15 AM 9:07 PM
Waning Gibbous, 65% visible
Pressure 29.95 in
Visibility 7.0 miles
Clouds Overcast 1200 ft
Heat Index 74 °F
Dew Point 73 °F
Humidity 93%
Rainfall 0.00 in
Snow Depth Not available.
UV 1.0 out of 12
Pollen 2.00 out of 12
Air Quality Not available.
Flu Activity Not available.
METAR KDAY 071056Z 21010KT 7SM OVC012 24/22 A2998 RMK AO2 SLP142 T02390217

More Conditions Fewer Conditions

Pressure 29.95 in
Visibility 7.0 miles
Clouds Overcast 1200 ft
Heat Index 74 °F
Dew Point 73 °F
Humidity 93%
Rainfall 0.00 in
Snow Depth Not available.
UV 1.0 out of 12
Pollen 2.00 out of 12
Air Quality Not available.
Flu Activity Not available.
METAR KDAY 071056Z 21010KT 7SM OVC012 24/22 A2998 RMK AO2 SLP142 T02390217

More Conditions Fewer Conditions

10-Day Weather Forecast

×

Almanac

Astronomy

Jul. 07, 2015 Rise Set
Actual Time
Civil Twilight
Nautical Twilight
Astronomical Twilight
Moon
Length of Visible Light
Length of Day
Tomorrow will be .
, % of the Moon is Illuminated

Today's Extremes

State Highs State Lows

Community

WunderPhotos

Upload Photos

1,835,770 photos uploaded!

WunderBlogs® & News

Nearby

Air Quality

  Air Quality AQ Index Pollutant
Not available.

Snow Depth

Station Depth Elevation

Earthquake Activity

City Distance Mag. Time & Date
Minimum magnitude displayed is 2.5.

Coastal Water Temperatures

Place Temperature

Stations

Nearby Weather Stations

Station Location Temp. Windchill Dew Point Humidity Wind Precip. Elev Updated Type